Time;durP1;ratioP1;P1;durP2;ratioP2;P2;SDS_P1;SDS_P2;PMS_P1;PMS_P2;Temp;Humidity;BMP_temperature;BMP_pressure;BME280_temperature;BME280_humidity;BME280_pressure;Samples;Min_cycle;Max_cycle;Signal;HPM_P1;HPM_P2
2023/08/18 00:00:56;;;;;;;11.23;4.17;;;18.80;99.90;;;;;;7570887;19;20316;-78
2023/08/18 00:03:29;;;;;;;9.48;4.72;;;18.90;99.90;;;;;;7573024;19;20673;-75
2023/08/18 00:06:01;;;;;;;10.88;4.53;;;18.90;99.90;;;;;;7574031;19;20482;-74
2023/08/18 00:08:35;;;;;;;6.97;4.15;;;18.70;99.90;;;;;;7572022;19;20014;-75
2023/08/18 00:11:09;;;;;;;7.93;4.45;;;18.80;99.90;;;;;;7593143;19;20050;-74
2023/08/18 00:13:41;;;;;;;5.55;4.00;;;18.80;99.90;;;;;;7569155;19;20479;-74
2023/08/18 00:16:14;;;;;;;8.48;4.38;;;18.90;99.90;;;;;;7584408;19;20015;-75
2023/08/18 00:18:46;;;;;;;10.02;4.72;;;18.80;99.90;;;;;;7565308;19;20063;-74
2023/08/18 00:21:18;;;;;;;8.05;4.63;;;18.90;99.90;;;;;;7578400;19;20532;-78
2023/08/18 00:23:51;;;;;;;8.25;4.13;;;18.80;99.90;;;;;;7571722;19;20018;-74
2023/08/18 00:26:23;;;;;;;8.60;4.80;;;18.70;99.90;;;;;;7577947;19;20019;-76
2023/08/18 00:28:56;;;;;;;7.65;4.30;;;18.80;99.90;;;;;;7584226;19;20818;-75
2023/08/18 00:31:28;;;;;;;9.35;4.47;;;18.80;99.90;;;;;;7587386;19;20110;-74
2023/08/18 00:34:00;;;;;;;5.10;4.32;;;18.70;99.90;;;;;;7585841;19;20037;-75
2023/08/18 00:36:33;;;;;;;6.00;4.47;;;18.80;99.90;;;;;;7568989;19;20147;-74
2023/08/18 00:39:05;;;;;;;8.17;4.60;;;18.70;99.90;;;;;;7578407;19;21581;-74
2023/08/18 00:41:38;;;;;;;7.10;4.80;;;18.80;99.90;;;;;;7572740;19;20609;-75
2023/08/18 00:44:11;;;;;;;8.30;5.00;;;18.70;99.90;;;;;;7561756;19;20295;-74
2023/08/18 00:46:44;;;;;;;5.68;4.40;;;18.60;99.90;;;;;;7558627;19;20022;-74
2023/08/18 00:49:18;;;;;;;6.47;4.45;;;18.60;99.90;;;;;;7572389;19;20022;-75
2023/08/18 00:51:51;;;;;;;9.85;5.30;;;18.40;99.90;;;;;;7574744;19;20014;-76
2023/08/18 00:54:24;;;;;;;5.97;4.65;;;18.40;99.90;;;;;;7579167;19;20022;-74
2023/08/18 00:56:57;;;;;;;5.95;4.93;;;18.40;99.90;;;;;;7576470;19;20406;-74
2023/08/18 00:59:29;;;;;;;7.65;4.90;;;18.40;99.90;;;;;;7562605;19;20440;-74
2023/08/18 01:02:02;;;;;;;6.43;5.03;;;18.40;99.90;;;;;;7549217;19;20022;-76
2023/08/18 01:04:35;;;;;;;7.93;4.88;;;18.30;99.90;;;;;;7577037;19;20025;-74
2023/08/18 01:07:07;;;;;;;8.07;5.10;;;18.30;99.90;;;;;;7562112;19;20010;-74
2023/08/18 01:09:40;;;;;;;8.50;5.50;;;18.30;99.90;;;;;;7558059;19;20417;-74
2023/08/18 01:12:23;;;;;;;7.53;5.03;;;18.20;99.90;;;;;;7567607;19;21097;-75
2023/08/18 01:15:11;;;;;;;7.93;5.40;;;18.10;99.90;;;;;;7581606;19;21138;-75
2023/08/18 01:17:55;;;;;;;8.98;5.35;;;18.10;99.90;;;;;;7583336;19;20015;-74
2023/08/18 01:20:28;;;;;;;8.98;5.18;;;18.00;99.90;;;;;;7563108;19;20014;-75
2023/08/18 01:23:02;;;;;;;6.43;4.55;;;17.80;99.90;;;;;;7589744;19;20488;-75
2023/08/18 01:25:35;;;;;;;6.95;5.00;;;17.80;99.90;;;;;;7577936;19;20294;-75
2023/08/18 01:28:07;;;;;;;6.75;5.00;;;17.90;99.90;;;;;;7582441;19;20022;-75
2023/08/18 01:30:48;;;;;;;9.75;5.43;;;18.00;99.90;;;;;;7567952;19;20011;-74
2023/08/18 01:33:25;;;;;;;9.13;5.18;;;17.90;99.90;;;;;;7571673;19;20037;-76
2023/08/18 01:36:07;;;;;;;9.90;5.20;;;18.00;99.90;;;;;;7554230;19;20026;-76
2023/08/18 01:38:44;;;;;;;6.38;5.05;;;18.00;99.90;;;;;;7535169;19;20037;-76
2023/08/18 01:41:20;;;;;;;6.05;4.72;;;18.00;99.90;;;;;;7565984;19;20653;-75
2023/08/18 01:43:52;;;;;;;11.80;4.68;;;17.90;99.90;;;;;;7576071;19;20057;-75
2023/08/18 01:46:24;;;;;;;6.75;4.63;;;17.90;99.90;;;;;;7588811;19;20014;-75
2023/08/18 01:48:57;;;;;;;9.15;5.45;;;17.80;99.90;;;;;;7580101;19;20014;-75
2023/08/18 01:51:30;;;;;;;7.22;5.30;;;17.90;99.90;;;;;;7595634;19;20021;-74
2023/08/18 01:54:03;;;;;;;7.20;4.70;;;17.90;99.90;;;;;;7593063;19;21191;-77
2023/08/18 01:56:35;;;;;;;8.50;5.20;;;18.00;99.90;;;;;;7594026;19;20741;-74
2023/08/18 01:59:07;;;;;;;8.73;5.38;;;17.80;99.90;;;;;;7594990;19;20288;-74
2023/08/18 02:01:39;;;;;;;6.30;4.78;;;17.90;99.90;;;;;;7592587;19;20026;-76
2023/08/18 02:04:12;;;;;;;8.45;5.30;;;18.00;99.90;;;;;;7592200;19;20712;-74
2023/08/18 02:06:44;;;;;;;5.53;4.85;;;17.90;99.90;;;;;;7594388;19;20596;-76
2023/08/18 02:09:16;;;;;;;6.63;4.78;;;17.90;99.90;;;;;;7595965;19;20022;-75
2023/08/18 02:11:49;;;;;;;8.20;5.07;;;17.80;99.90;;;;;;7590671;19;20022;-75
2023/08/18 02:14:21;;;;;;;8.23;4.60;;;17.70;99.90;;;;;;7593399;19;20026;-74
2023/08/18 02:16:53;;;;;;;9.57;5.78;;;17.70;99.90;;;;;;7594301;19;20018;-74
2023/08/18 02:19:25;;;;;;;9.15;5.22;;;17.70;99.90;;;;;;7593607;19;20472;-76
2023/08/18 02:21:58;;;;;;;7.88;5.10;;;17.80;99.90;;;;;;7591826;19;20002;-74
2023/08/18 02:24:30;;;;;;;9.05;5.78;;;17.90;99.90;;;;;;7593978;19;21046;-75
2023/08/18 02:27:02;;;;;;;8.02;4.78;;;17.80;99.90;;;;;;7592034;19;20018;-74
2023/08/18 02:29:35;;;;;;;6.22;4.93;;;17.80;99.90;;;;;;7592271;19;20050;-75
2023/08/18 02:32:07;;;;;;;13.27;5.43;;;17.80;99.90;;;;;;7589446;19;20018;-76
2023/08/18 02:34:39;;;;;;;8.35;4.80;;;17.80;99.90;;;;;;7590517;19;20026;-74
2023/08/18 02:37:11;;;;;;;8.45;4.95;;;17.80;99.90;;;;;;7593668;19;20327;-75
2023/08/18 02:39:44;;;;;;;9.90;6.03;;;17.80;99.90;;;;;;7593695;19;20021;-74
2023/08/18 02:42:16;;;;;;;9.68;5.28;;;17.70;99.90;;;;;;7596240;19;21323;-75
2023/08/18 02:44:49;;;;;;;6.68;5.05;;;17.70;99.90;;;;;;7593180;19;20748;-75
2023/08/18 02:47:21;;;;;;;6.80;4.93;;;17.60;99.90;;;;;;7594091;19;20346;-76
2023/08/18 02:49:54;;;;;;;7.28;4.97;;;17.70;99.90;;;;;;7594967;19;20048;-75
2023/08/18 02:52:26;;;;;;;8.27;5.30;;;17.60;99.90;;;;;;7592096;19;20042;-74
2023/08/18 02:54:58;;;;;;;10.43;5.38;;;17.70;99.90;;;;;;7596099;19;20018;-74
2023/08/18 02:57:31;;;;;;;8.90;5.07;;;17.70;99.90;;;;;;7592217;19;20022;-75
2023/08/18 03:00:04;;;;;;;8.05;5.18;;;17.60;99.90;;;;;;7592977;19;20010;-74
2023/08/18 03:02:36;;;;;;;6.93;4.93;;;17.60;99.90;;;;;;7585727;19;21368;-73
2023/08/18 03:05:08;;;;;;;11.02;4.90;;;17.60;99.90;;;;;;7586448;19;20588;-74
2023/08/18 03:07:40;;;;;;;10.07;5.10;;;17.60;99.90;;;;;;7586238;19;20025;-73
2023/08/18 03:10:13;;;;;;;7.50;4.35;;;17.60;99.90;;;;;;7588624;19;20114;-75
2023/08/18 03:12:45;;;;;;;6.30;4.63;;;17.60;99.90;;;;;;7586910;19;20688;-75
2023/08/18 03:15:17;;;;;;;6.97;4.65;;;17.50;99.90;;;;;;7591428;19;20500;-75
2023/08/18 03:17:50;;;;;;;7.63;4.75;;;17.50;99.90;;;;;;7584938;19;20019;-74
2023/08/18 03:20:23;;;;;;;8.43;4.72;;;17.60;99.90;;;;;;7587962;19;20026;-75
2023/08/18 03:22:55;;;;;;;9.57;4.97;;;17.50;99.90;;;;;;7586038;19;20022;-75
2023/08/18 03:25:29;;;;;;;5.50;4.22;;;17.50;99.90;;;;;;7588028;19;20442;-76
2023/08/18 03:28:01;;;;;;;10.15;5.03;;;17.50;99.90;;;;;;7585920;19;20677;-75
2023/08/18 03:30:39;;;;;;;8.80;4.55;;;17.50;99.90;;;;;;7591605;19;20920;-75
2023/08/18 03:33:12;;;;;;;8.02;4.82;;;17.50;99.90;;;;;;7586247;19;20524;-74
2023/08/18 03:35:48;;;;;;;7.30;4.80;;;17.50;99.90;;;;;;7581328;19;20019;-75
2023/08/18 03:38:21;;;;;;;7.20;4.40;;;17.40;99.90;;;;;;7590366;19;20929;-76
2023/08/18 03:41:04;;;;;;;6.38;3.85;;;17.30;99.90;;;;;;7583968;19;20018;-75
2023/08/18 03:43:37;;;;;;;6.97;4.45;;;17.30;99.90;;;;;;7586153;19;21657;-75
2023/08/18 03:46:36;;;;;;;14.43;4.43;;;17.30;99.90;;;;;;7582952;19;20078;-76
2023/08/18 03:49:09;;;;;;;5.88;4.65;;;17.20;99.90;;;;;;7585728;19;20804;-74
2023/08/18 03:51:42;;;;;;;;;;;17.10;99.90;;;;;;7586346;19;20657;-74
2023/08/18 03:54:14;;;;;;;6.97;4.25;;;17.10;99.90;;;;;;7583999;19;19944;-75
2023/08/18 03:56:46;;;;;;;9.10;4.60;;;17.00;99.90;;;;;;7587195;19;20023;-74
2023/08/18 03:59:20;;;;;;;;;;;17.00;99.90;;;;;;7593500;19;20312;-76
2023/08/18 04:01:52;;;;;;;8.20;4.43;;;17.00;99.90;;;;;;7585524;19;19926;-75
2023/08/18 04:04:25;;;;;;;10.75;4.97;;;17.10;99.90;;;;;;7594020;19;20014;-74
2023/08/18 04:06:57;;;;;;;7.25;3.70;;;17.10;99.90;;;;;;7589805;19;20033;-75
2023/08/18 04:09:29;;;;;;;8.63;4.70;;;17.20;99.90;;;;;;7594625;19;20150;-75
2023/08/18 04:12:01;;;;;;;9.23;5.43;;;17.20;99.90;;;;;;7588122;19;20018;-75
2023/08/18 04:14:34;;;;;;;6.53;4.22;;;17.10;99.90;;;;;;7592706;19;20018;-75
2023/08/18 04:17:07;;;;;;;4.78;3.65;;;17.20;99.90;;;;;;7591632;19;20937;-74
2023/08/18 04:19:39;;;;;;;5.40;3.80;;;17.20;99.90;;;;;;7599811;19;21767;-75
2023/08/18 04:22:11;;;;;;;7.70;4.57;;;17.20;99.90;;;;;;7593796;19;20117;-76
2023/08/18 04:24:43;;;;;;;7.35;4.53;;;17.20;99.90;;;;;;7597093;19;20022;-77
2023/08/18 04:27:17;;;;;;;7.55;4.82;;;17.20;99.90;;;;;;7591834;19;20041;-74
2023/08/18 04:29:49;;;;;;;13.65;5.30;;;17.20;99.90;;;;;;7593399;19;20022;-74
2023/08/18 04:32:21;;;;;;;9.75;4.97;;;17.20;99.90;;;;;;7594891;19;20056;-74
2023/08/18 04:34:55;;;;;;;7.13;5.35;;;17.20;99.90;;;;;;7590877;19;20029;-76
2023/08/18 04:37:28;;;;;;;9.20;4.20;;;17.20;99.90;;;;;;7594233;19;20507;-74
2023/08/18 04:40:00;;;;;;;6.15;3.67;;;17.20;99.90;;;;;;7592155;19;20018;-73
2023/08/18 04:42:33;;;;;;;7.22;4.40;;;17.20;99.90;;;;;;7596354;19;20015;-74
2023/08/18 04:45:06;;;;;;;5.93;3.93;;;17.20;99.90;;;;;;7593581;19;20018;-74
2023/08/18 04:47:38;;;;;;;6.75;4.25;;;17.20;99.90;;;;;;7594984;19;20014;-75
2023/08/18 04:50:10;;;;;;;12.48;4.88;;;17.30;99.90;;;;;;7594741;19;20025;-75
2023/08/18 04:52:43;;;;;;;6.97;3.95;;;17.30;99.90;;;;;;7594941;19;20536;-73
2023/08/18 04:55:15;;;;;;;10.23;4.03;;;17.40;99.90;;;;;;7589709;19;20015;-74
2023/08/18 04:57:47;;;;;;;8.93;3.90;;;17.40;99.90;;;;;;7596293;19;21039;-75
2023/08/18 05:00:20;;;;;;;6.93;4.05;;;17.40;99.90;;;;;;7590071;19;20617;-73
2023/08/18 05:02:52;;;;;;;7.78;4.22;;;17.50;99.90;;;;;;7587785;19;20022;-74
2023/08/18 05:05:25;;;;;;;7.57;4.47;;;17.50;99.90;;;;;;7590257;19;20717;-74
2023/08/18 05:07:57;;;;;;;8.03;4.50;;;17.50;99.90;;;;;;7588625;19;20063;-73
2023/08/18 05:10:29;;;;;;;9.63;4.40;;;17.50;99.90;;;;;;7592982;19;20025;-73
2023/08/18 05:13:02;;;;;;;6.30;3.60;;;17.50;99.90;;;;;;7592772;19;20014;-74
2023/08/18 05:15:34;;;;;;;9.90;3.90;;;17.60;99.90;;;;;;7595797;19;20546;-74
2023/08/18 05:18:07;;;;;;;8.48;4.05;;;17.70;99.90;;;;;;7595529;19;20019;-74
2023/08/18 05:20:39;;;;;;;5.25;4.22;;;17.70;99.90;;;;;;7594016;19;20015;-75
2023/08/18 05:23:11;;;;;;;6.00;4.10;;;17.70;99.90;;;;;;7588281;19;20572;-74
2023/08/18 05:25:45;;;;;;;7.55;3.88;;;17.70;99.90;;;;;;7590592;19;20022;-74
2023/08/18 05:28:17;;;;;;;7.80;4.00;;;17.80;99.90;;;;;;7591517;19;20061;-74
2023/08/18 05:30:50;;;;;;;5.70;3.83;;;17.90;99.90;;;;;;7591925;19;20026;-74
2023/08/18 05:33:23;;;;;;;7.47;4.30;;;17.90;99.90;;;;;;7587412;19;20844;-73
2023/08/18 05:35:59;;;;;;;6.35;4.15;;;18.00;99.90;;;;;;7587972;19;20007;-74
2023/08/18 05:38:31;;;;;;;8.65;4.03;;;18.10;99.90;;;;;;7593899;19;20022;-74
2023/08/18 05:41:10;;;;;;;5.78;4.15;;;18.20;99.90;;;;;;7589055;19;20060;-75
2023/08/18 05:43:43;;;;;;;7.53;4.18;;;18.30;99.90;;;;;;7594144;19;20017;-73
2023/08/18 05:46:15;;;;;;;5.13;4.00;;;18.40;99.90;;;;;;7588881;19;20539;-75
2023/08/18 05:48:47;;;;;;;12.50;5.57;;;18.40;99.90;;;;;;7594215;19;20026;-74
2023/08/18 05:51:20;;;;;;;6.80;4.97;;;18.40;99.90;;;;;;7592065;19;20023;-74
2023/08/18 05:53:52;;;;;;;7.35;4.07;;;18.60;99.90;;;;;;7593073;19;20618;-74
2023/08/18 05:56:25;;;;;;;5.82;4.20;;;18.60;99.90;;;;;;7591351;19;20026;-75
2023/08/18 05:58:57;;;;;;;9.25;4.30;;;18.70;99.90;;;;;;7592854;19;20022;-75
2023/08/18 06:01:29;;;;;;;7.50;4.00;;;18.80;99.90;;;;;;7585815;19;20239;-73
2023/08/18 06:04:02;;;;;;;6.18;3.85;;;18.90;99.90;;;;;;7593021;19;20022;-74
2023/08/18 06:06:35;;;;;;;5.93;3.97;;;18.90;99.90;;;;;;7592696;19;20010;-73
2023/08/18 06:09:07;;;;;;;5.18;4.28;;;18.90;99.90;;;;;;7590690;19;20671;-75
2023/08/18 06:11:39;;;;;;;7.45;4.22;;;19.00;99.90;;;;;;7592994;19;20413;-74
2023/08/18 06:14:11;;;;;;;7.13;3.85;;;19.00;99.90;;;;;;7589234;19;20025;-74
2023/08/18 06:16:43;;;;;;;5.55;4.03;;;19.10;99.90;;;;;;7592320;19;20011;-74
2023/08/18 06:19:16;;;;;;;7.60;4.13;;;19.10;99.90;;;;;;7589086;19;20026;-74
2023/08/18 06:21:48;;;;;;;7.60;3.85;;;19.20;99.90;;;;;;7594690;19;20900;-75
2023/08/18 06:24:20;;;;;;;4.43;3.22;;;19.30;99.90;;;;;;7586100;19;20019;-74
2023/08/18 06:26:53;;;;;;;4.32;3.22;;;19.30;99.90;;;;;;7589904;19;20044;-74
2023/08/18 06:29:25;;;;;;;6.90;3.33;;;19.50;99.90;;;;;;7590340;19;20025;-73
2023/08/18 06:31:57;;;;;;;4.82;3.60;;;19.50;99.90;;;;;;7593896;19;20442;-74
2023/08/18 06:34:30;;;;;;;7.28;3.55;;;19.60;99.90;;;;;;7593686;19;20652;-74
2023/08/18 06:37:02;;;;;;;4.75;3.63;;;19.60;99.90;;;;;;7590088;19;20362;-74
2023/08/18 06:39:34;;;;;;;4.97;3.20;;;19.70;99.90;;;;;;7592413;19;20026;-74
2023/08/18 06:42:07;;;;;;;4.78;3.33;;;19.70;99.90;;;;;;7585432;19;21032;-74
2023/08/18 06:44:40;;;;;;;4.60;3.42;;;19.80;99.90;;;;;;7589543;19;20907;-74
2023/08/18 06:47:12;;;;;;;6.70;3.70;;;19.90;99.90;;;;;;7587078;19;20040;-74
2023/08/18 06:49:44;;;;;;;6.38;3.65;;;20.00;99.90;;;;;;7590477;19;20381;-74
2023/08/18 06:52:16;;;;;;;8.13;3.50;;;20.00;99.90;;;;;;7588026;19;20022;-73
2023/08/18 06:54:49;;;;;;;7.80;3.20;;;20.10;99.90;;;;;;7588753;19;20571;-73
2023/08/18 06:57:23;;;;;;;5.35;3.20;;;20.20;99.90;;;;;;7586066;19;20014;-75
2023/08/18 06:59:55;;;;;;;4.93;3.38;;;20.30;99.90;;;;;;7594784;19;20502;-73
2023/08/18 07:02:27;;;;;;;3.55;2.80;;;20.30;99.90;;;;;;7587242;19;20059;-73
2023/08/18 07:05:00;;;;;;;6.70;2.80;;;20.50;99.90;;;;;;7591858;19;20944;-73
2023/08/18 07:07:34;;;;;;;8.88;2.85;;;20.60;99.90;;;;;;7594014;19;20044;-73
2023/08/18 07:10:07;;;;;;;3.67;2.40;;;20.70;99.90;;;;;;7586665;19;20583;-74
2023/08/18 07:12:39;;;;;;;3.67;2.67;;;20.80;99.90;;;;;;7589414;19;20515;-73
2023/08/18 07:15:11;;;;;;;4.53;2.78;;;20.90;99.90;;;;;;7587651;19;20448;-75
2023/08/18 07:17:43;;;;;;;3.72;2.70;;;21.10;99.90;;;;;;7592365;19;20377;-76
2023/08/18 07:20:18;;;;;;;6.68;2.70;;;21.20;99.90;;;;;;7588787;19;20503;-75
2023/08/18 07:22:55;;;;;;;6.05;3.15;;;21.30;99.90;;;;;;7589141;19;20595;-73
2023/08/18 07:25:27;;;;;;;5.38;3.03;;;21.40;99.90;;;;;;7587314;19;20023;-77
2023/08/18 07:28:04;;;;;;;4.85;2.70;;;21.50;99.90;;;;;;7589977;19;20877;-75
2023/08/18 07:30:36;;;;;;;5.72;2.53;;;21.50;99.90;;;;;;7590921;19;20064;-75
2023/08/18 07:33:12;;;;;;;5.82;3.03;;;21.70;99.90;;;;;;7587601;19;20015;-74
2023/08/18 07:35:45;;;;;;;4.63;3.30;;;21.90;99.90;;;;;;7595563;19;20574;-73
2023/08/18 07:38:18;;;;;;;4.93;2.72;;;22.10;99.90;;;;;;7597811;19;20030;-77
2023/08/18 07:40:52;;;;;;;4.10;3.22;;;22.10;99.90;;;;;;7593689;19;20252;-78
2023/08/18 07:43:24;;;;;;;3.55;3.03;;;22.10;99.90;;;;;;7593709;19;20037;-75
2023/08/18 07:45:57;;;;;;;4.28;3.13;;;22.10;99.90;;;;;;7592384;19;20014;-75
2023/08/18 07:48:30;;;;;;;7.67;2.97;;;22.10;99.90;;;;;;7596342;19;20018;-76
2023/08/18 07:51:03;;;;;;;3.03;2.67;;;22.20;99.90;;;;;;7601919;19;20029;-73
2023/08/18 07:53:35;;;;;;;5.03;3.10;;;22.20;99.90;;;;;;7601618;19;20824;-76
2023/08/18 07:56:08;;;;;;;5.97;3.03;;;22.30;99.90;;;;;;7596820;19;20590;-75
2023/08/18 07:58:40;;;;;;;4.68;3.03;;;22.40;99.90;;;;;;7606537;19;20039;-76
2023/08/18 08:01:12;;;;;;;4.80;3.05;;;22.50;99.90;;;;;;7593581;19;20550;-77
2023/08/18 08:03:45;;;;;;;4.07;3.00;;;22.60;99.90;;;;;;7594673;19;20014;-73
2023/08/18 08:06:17;;;;;;;3.90;2.92;;;22.80;99.90;;;;;;7594886;19;20227;-75
2023/08/18 08:08:49;;;;;;;6.65;3.20;;;22.90;99.90;;;;;;7595594;19;20015;-73
2023/08/18 08:11:22;;;;;;;4.57;2.75;;;22.90;99.90;;;;;;7575709;19;20227;-77
2023/08/18 08:13:54;;;;;;;4.97;3.10;;;23.10;99.90;;;;;;7595607;19;20028;-73
2023/08/18 08:16:26;;;;;;;3.55;2.50;;;23.20;99.90;;;;;;7590326;19;22587;-73
2023/08/18 08:18:59;;;;;;;3.63;2.95;;;23.20;99.90;;;;;;7591249;19;20089;-74
2023/08/18 08:21:31;;;;;;;3.45;2.67;;;23.30;99.90;;;;;;7596673;19;20018;-76
2023/08/18 08:24:07;;;;;;;5.38;2.95;;;23.40;99.90;;;;;;7594077;19;20337;-73
2023/08/18 08:26:40;;;;;;;4.88;3.25;;;23.50;99.90;;;;;;7586409;19;20023;-73
2023/08/18 08:29:12;;;;;;;4.18;2.55;;;23.50;99.90;;;;;;7593094;19;20716;-75
2023/08/18 08:31:44;;;;;;;5.38;2.72;;;23.50;99.90;;;;;;7594951;19;20571;-74
2023/08/18 08:34:17;;;;;;;3.80;3.08;;;23.50;99.90;;;;;;7591493;19;20455;-74
2023/08/18 08:36:54;;;;;;;3.40;2.80;;;23.60;99.90;;;;;;7596346;19;20021;-74
2023/08/18 08:39:26;;;;;;;4.93;2.75;;;23.70;99.90;;;;;;7592443;19;20054;-74
2023/08/18 08:41:58;;;;;;;6.53;2.80;;;23.80;99.90;;;;;;7594944;19;21274;-74
2023/08/18 08:44:30;;;;;;;4.63;2.80;;;23.90;99.90;;;;;;7592016;19;20106;-74
2023/08/18 08:47:03;;;;;;;4.78;2.70;;;24.00;99.90;;;;;;7588312;19;20113;-75
2023/08/18 08:49:39;;;;;;;3.17;2.72;;;24.10;99.90;;;;;;7591396;19;20673;-74
2023/08/18 08:52:16;;;;;;;3.78;2.65;;;24.10;99.90;;;;;;7590886;19;20052;-74
2023/08/18 08:54:52;;;;;;;3.70;2.65;;;24.20;99.90;;;;;;7593367;19;20026;-74
2023/08/18 08:57:25;;;;;;;3.58;2.55;;;24.30;99.90;;;;;;7593746;19;20018;-73
2023/08/18 08:59:59;;;;;;;3.40;2.80;;;24.40;99.90;;;;;;7595215;19;20494;-74
2023/08/18 09:02:32;;;;;;;4.35;3.08;;;24.50;99.90;;;;;;7592945;19;20507;-74
2023/08/18 09:05:04;;;;;;;;;;;24.50;99.90;;;;;;7597823;19;20613;-74
2023/08/18 09:07:37;;;;;;;8.07;3.05;;;24.50;99.90;;;;;;7595345;19;19926;-74
2023/08/18 09:10:10;;;;;;;4.78;2.83;;;24.50;99.90;;;;;;7589940;19;20011;-74
2023/08/18 09:12:46;;;;;;;3.75;2.75;;;24.50;99.90;;;;;;7594169;19;20015;-73
2023/08/18 09:15:19;;;;;;;4.60;2.70;;;24.60;99.90;;;;;;7593757;19;20330;-75
2023/08/18 09:17:51;;;;;;;3.70;2.45;;;24.70;99.90;;;;;;7593062;19;20022;-74
2023/08/18 09:20:24;;;;;;;3.83;2.83;;;24.70;99.90;;;;;;7595904;19;20023;-75
2023/08/18 09:23:01;;;;;;;4.35;2.80;;;24.80;99.90;;;;;;7596989;19;20109;-75
2023/08/18 09:25:34;;;;;;;3.67;2.70;;;24.80;99.90;;;;;;7593698;19;20022;-75
2023/08/18 09:28:07;;;;;;;3.17;2.80;;;24.90;99.90;;;;;;7590638;19;20723;-75
2023/08/18 09:30:47;;;;;;;4.97;2.97;;;24.90;99.90;;;;;;7596035;19;20041;-74
2023/08/18 09:33:27;;;;;;;3.33;2.97;;;25.00;99.90;;;;;;7581164;19;20022;-74
2023/08/18 09:36:05;;;;;;;4.38;2.47;;;24.90;99.90;;;;;;7591604;19;20017;-75
2023/08/18 09:38:43;;;;;;;3.05;2.70;;;25.00;99.90;;;;;;7595264;19;20042;-74
2023/08/18 09:41:16;;;;;;;5.40;2.75;;;25.00;99.90;;;;;;7593330;19;20022;-75
2023/08/18 09:43:53;;;;;;;4.97;2.72;;;25.00;99.90;;;;;;7594228;19;20017;-73
2023/08/18 09:46:28;;;;;;;3.88;2.67;;;25.10;99.90;;;;;;7594259;19;20019;-74
2023/08/18 09:49:01;;;;;;;3.38;2.42;;;25.10;99.90;;;;;;7591584;19;20090;-73
2023/08/18 09:51:34;;;;;;;;;;;25.10;99.90;;;;;;7591133;19;20018;-75
2023/08/18 09:54:11;;;;;;;2.80;2.50;;;25.20;99.90;;;;;;7595659;19;20794;-73
2023/08/18 09:56:48;;;;;;;2.90;2.47;;;25.20;99.90;;;;;;7584465;19;20673;-74
2023/08/18 09:59:29;;;;;;;4.18;2.50;;;25.30;99.90;;;;;;7586235;19;20590;-76
2023/08/18 10:02:03;;;;;;;3.83;2.65;;;25.30;99.90;;;;;;7578662;19;20014;-74
2023/08/18 10:04:39;;;;;;;3.50;2.65;;;25.40;99.90;;;;;;7584154;19;20014;-74
2023/08/18 10:07:15;;;;;;;3.75;2.67;;;25.40;99.90;;;;;;7576859;19;20015;-74
2023/08/18 10:09:47;;;;;;;3.28;2.83;;;25.50;99.30;;;;;;7591630;19;20014;-74
2023/08/18 10:12:21;;;;;;;3.28;2.53;;;25.50;99.50;;;;;;7583392;19;20060;-75
2023/08/18 10:14:53;;;;;;;3.15;2.50;;;25.60;99.10;;;;;;7589798;19;20099;-74
2023/08/18 10:17:26;;;;;;;3.50;2.90;;;25.60;98.40;;;;;;7585436;19;20029;-74
2023/08/18 10:20:00;;;;;;;2.88;2.60;;;25.60;98.80;;;;;;7599325;19;20019;-75
2023/08/18 10:22:34;;;;;;;5.80;3.03;;;25.70;99.00;;;;;;7591280;19;20019;-74
2023/08/18 10:25:07;;;;;;;4.15;2.65;;;25.80;98.10;;;;;;7583689;19;20067;-74
2023/08/18 10:27:42;;;;;;;5.40;2.78;;;25.90;98.10;;;;;;7594087;19;20057;-74
2023/08/18 10:30:14;;;;;;;3.38;2.40;;;25.90;97.10;;;;;;7587238;19;20089;-74
2023/08/18 10:32:47;;;;;;;3.45;2.60;;;26.00;96.70;;;;;;7580725;19;20010;-75
2023/08/18 10:35:25;;;;;;;3.33;2.42;;;26.00;97.50;;;;;;7585604;19;20014;-73
2023/08/18 10:38:05;;;;;;;5.40;3.03;;;26.00;97.50;;;;;;7590464;19;20018;-75
2023/08/18 10:40:38;;;;;;;3.00;2.45;;;26.20;96.40;;;;;;7588442;19;20025;-74
2023/08/18 10:43:14;;;;;;;;;;;26.20;96.10;;;;;;7589900;19;20448;-75
2023/08/18 10:45:51;;;;;;;3.22;2.65;;;26.30;95.60;;;;;;7584206;19;20284;-73
2023/08/18 10:48:31;;;;;;;4.80;2.78;;;26.30;96.10;;;;;;7590874;19;20508;-75
2023/08/18 10:51:03;;;;;;;3.60;2.78;;;26.50;96.90;;;;;;7587056;19;20026;-76
2023/08/18 10:53:37;;;;;;;3.15;2.47;;;26.50;95.90;;;;;;7582763;19;20500;-74
2023/08/18 10:56:10;;;;;;;6.40;2.72;;;26.60;95.40;;;;;;7586068;19;20022;-75
2023/08/18 10:58:43;;;;;;;3.58;2.70;;;26.80;95.60;;;;;;7582869;19;20011;-73
2023/08/18 11:01:18;;;;;;;4.85;3.10;;;26.80;96.10;;;;;;7593629;19;20367;-74
2023/08/18 11:03:51;;;;;;;3.40;3.08;;;27.00;95.90;;;;;;7593918;19;20892;-73
2023/08/18 11:06:26;;;;;;;3.42;2.80;;;27.10;93.80;;;;;;7593745;19;20035;-74
2023/08/18 11:08:59;;;;;;;4.13;2.50;;;27.30;94.60;;;;;;7593439;19;20022;-74
2023/08/18 11:11:31;;;;;;;4.73;2.90;;;27.40;93.70;;;;;;7592401;19;20026;-73
2023/08/18 11:14:04;;;;;;;4.18;2.60;;;27.80;93.90;;;;;;7590750;19;20062;-74
2023/08/18 11:16:37;;;;;;;2.60;2.40;;;28.20;92.30;;;;;;7592444;19;20010;-74
2023/08/18 11:19:11;;;;;;;3.92;2.95;;;28.60;90.20;;;;;;7596939;19;20028;-73
2023/08/18 11:21:43;;;;;;;3.00;2.40;;;29.00;89.40;;;;;;7586622;19;20016;-73
2023/08/18 11:24:16;;;;;;;4.03;2.73;;;29.30;89.00;;;;;;7587227;19;20021;-73
2023/08/18 11:26:52;;;;;;;2.65;2.25;;;29.50;88.50;;;;;;7582875;19;20010;-74
2023/08/18 11:29:26;;;;;;;;;;;30.00;89.40;;;;;;7591214;19;20022;-75
2023/08/18 11:31:59;;;;;;;2.83;2.53;;;30.20;84.70;;;;;;7589815;19;19919;-75
2023/08/18 11:34:31;;;;;;;4.30;2.33;;;30.40;82.70;;;;;;7591531;19;20367;-74
2023/08/18 11:37:05;;;;;;;2.65;2.42;;;30.50;82.60;;;;;;7593590;19;20119;-74
2023/08/18 11:39:38;;;;;;;3.22;2.33;;;30.60;81.40;;;;;;7589041;19;20058;-74
2023/08/18 11:42:12;;;;;;;2.63;2.30;;;30.90;82.00;;;;;;7589312;19;20033;-75
2023/08/18 11:44:45;;;;;;;2.72;2.53;;;31.10;82.80;;;;;;7586810;19;20480;-75
2023/08/18 11:47:17;;;;;;;3.20;2.25;;;31.30;77.20;;;;;;7591215;19;20024;-74
2023/08/18 11:49:50;;;;;;;3.38;2.55;;;31.40;78.40;;;;;;7588415;19;20026;-74
2023/08/18 11:52:23;;;;;;;4.03;2.78;;;31.60;74.90;;;;;;7587584;19;20098;-75
2023/08/18 11:54:57;;;;;;;2.50;2.30;;;31.70;74.90;;;;;;7585507;19;20037;-73
2023/08/18 11:57:29;;;;;;;2.55;2.35;;;31.90;73.90;;;;;;7581762;19;20614;-75
2023/08/18 12:00:10;;;;;;;4.22;2.47;;;32.00;74.40;;;;;;7586217;19;20019;-73
2023/08/18 12:02:44;;;;;;;2.97;2.72;;;32.30;70.60;;;;;;7586140;19;20029;-74
2023/08/18 12:05:24;;;;;;;3.72;2.40;;;32.40;70.30;;;;;;7584869;19;20018;-74
2023/08/18 12:07:59;;;;;;;3.03;2.72;;;32.40;70.40;;;;;;7584368;19;20583;-75
2023/08/18 12:10:32;;;;;;;3.92;2.80;;;32.40;69.50;;;;;;7579819;19;20578;-75
2023/08/18 12:13:04;;;;;;;4.25;2.83;;;32.70;70.50;;;;;;7589992;19;20018;-74
2023/08/18 12:15:36;;;;;;;3.65;3.00;;;32.80;69.30;;;;;;7578782;19;20435;-74
2023/08/18 12:18:09;;;;;;;3.55;2.95;;;32.80;69.80;;;;;;7581953;19;20015;-74
2023/08/18 12:20:41;;;;;;;3.65;2.53;;;32.80;72.30;;;;;;7584141;19;20014;-75
2023/08/18 12:23:14;;;;;;;;;;;33.10;70.40;;;;;;7591505;19;20018;-76
2023/08/18 12:25:46;;;;;;;4.10;2.42;;;33.20;69.10;;;;;;7589144;19;19930;-74
2023/08/18 12:28:19;;;;;;;8.05;2.75;;;33.20;68.70;;;;;;7601144;19;20031;-74
2023/08/18 12:30:51;;;;;;;4.47;3.05;;;33.30;68.30;;;;;;7595331;19;20635;-75
2023/08/18 12:33:25;;;;;;;5.95;3.28;;;33.50;66.30;;;;;;7588962;19;20026;-74
2023/08/18 12:35:57;;;;;;;4.72;2.88;;;33.60;67.20;;;;;;7582914;19;20025;-73
2023/08/18 12:38:30;;;;;;;3.00;2.75;;;33.60;66.80;;;;;;7593698;19;20622;-75
2023/08/18 12:41:03;;;;;;;3.50;2.70;;;33.70;66.90;;;;;;7583525;19;20074;-75
2023/08/18 12:43:37;;;;;;;4.32;2.63;;;34.00;66.80;;;;;;7586767;19;20090;-74
2023/08/18 12:46:09;;;;;;;3.90;2.42;;;34.10;67.60;;;;;;7590185;19;20026;-74
2023/08/18 12:48:41;;;;;;;4.32;2.47;;;33.50;63.40;;;;;;7596483;19;20059;-74
2023/08/18 12:51:17;;;;;;;2.60;2.40;;;33.40;62.90;;;;;;7597647;19;20409;-74
2023/08/18 12:53:50;;;;;;;2.40;2.20;;;33.60;63.00;;;;;;7598384;19;20022;-74
2023/08/18 12:56:22;;;;;;;2.42;2.13;;;33.90;63.30;;;;;;7603061;19;20681;-76
2023/08/18 12:58:54;;;;;;;4.65;2.17;;;34.00;61.80;;;;;;7598336;19;20019;-74
2023/08/18 13:01:27;;;;;;;2.90;2.65;;;34.20;62.00;;;;;;7600860;19;20541;-74
2023/08/18 13:03:59;;;;;;;4.47;2.20;;;34.40;61.00;;;;;;7599361;19;20544;-74
2023/08/18 13:06:32;;;;;;;7.00;2.45;;;34.40;59.70;;;;;;7599083;19;20596;-73
2023/08/18 13:09:04;;;;;;;3.58;2.40;;;34.60;59.00;;;;;;7599733;19;20043;-75
2023/08/18 13:11:36;;;;;;;5.47;2.78;;;34.70;60.20;;;;;;7598686;19;20423;-74
2023/08/18 13:14:09;;;;;;;2.63;2.42;;;34.70;59.20;;;;;;7599781;19;20497;-75
2023/08/18 13:16:41;;;;;;;6.00;2.45;;;34.80;58.40;;;;;;7598980;19;20440;-73
2023/08/18 13:19:19;;;;;;;2.95;2.40;;;34.90;59.10;;;;;;7598575;19;20637;-73